Portada
Imágenes satélite Pronóstico 15 díasClimaPredicción Marítima Ciclones Rayo AeropuertosFAQ Noticias Acerca
El tiempo : Europa África América del Norte América del Sur Asia Australia-Oceanía Otros
Idiomas Contacto

Vitória, Espírito Santo, Brasil

latitud: 20-16S, longitud: 040-17W, altitud: 4 m


METAR: SBVT 190000Z 26002KT 9999 FEW025 26/21 Q1014
short-TAF: expira (5367 horas)
long-TAF: SBVT 181600Z 1818/1918 21011KT 8000 SCT025 TN24/1907Z TX29/1914Z RMK PEA

Hora: 21:14 (00:14 UTC)

Observación

El informe se hizo hace 14 minutos, a las 00:00 UTC  
Viento 02 kt del oeste
Temperatura 26°C
Humedad 74%
Presión 1014 hPa
Visibilidad 10 km o más
Escasas nubes a una altura de 2500 ft

Cambiar las unidades

Pronóstico

El informe se hizo hace 8 horas y 5 minutos, a las 16:09 UTC  
Pronóstico válido del 18 a las 18 UTC al 19 a las 18 UTC
Viento 11 kt del sur-suroeste
Visibilidad 8000 m
Nubes dispersas a una altura de 2500 ft
La información que se ofrece en estas páginas está sujeta a una cláusula de exención de responsabilidad
El tiempo : Europa África América del Norte América del Sur Asia Australia-Oceanía Otros
Imágenes satélite Pronóstico 15 díasClimaPredicción Marítima Ciclones Rayo AeropuertosFAQ Idiomas Contacto Noticias Acerca